Time;durP1;ratioP1;P1;durP2;ratioP2;P2;SDS_P1;SDS_P2;PMS_P1;PMS_P2;Temp;Humidity;BMP_temperature;BMP_pressure;BME280_temperature;BME280_humidity;BME280_pressure;Samples;Min_cycle;Max_cycle;Signal;HPM_P1;HPM_P2
2022/07/30 00:00:07;;;;;;;5.35;3.22;;;17.10;99.90;;;16.78;95.66;97258.13;4997117;28;20033;-46
2022/07/30 00:02:32;;;;;;;4.32;3.28;;;17.00;99.90;;;16.73;98.39;97260.25;5011063;23;20046;-57
2022/07/30 00:04:58;;;;;;;4.60;3.13;;;16.90;99.90;;;16.70;98.69;97261.28;5008265;28;20127;-57
2022/07/30 00:07:24;;;;;;;4.93;3.58;;;16.90;99.90;;;16.68;100.00;97259.66;5010169;28;20348;-57
2022/07/30 00:09:50;;;;;;;6.22;4.00;;;16.90;99.90;;;16.70;100.00;97257.75;5014803;28;20120;-58
2022/07/30 00:12:15;;;;;;;4.60;3.60;;;16.90;99.90;;;16.69;100.00;97254.25;5008647;28;20060;-57
2022/07/30 00:14:41;;;;;;;3.83;3.25;;;16.90;99.90;;;16.69;100.00;97258.69;5008339;28;20037;-58
2022/07/30 00:17:07;;;;;;;4.60;3.90;;;16.90;99.90;;;16.68;100.00;97254.34;5008598;28;20044;-57
2022/07/30 00:19:33;;;;;;;4.63;3.65;;;16.90;99.90;;;16.71;100.00;97262.16;5011935;28;20076;-57
2022/07/30 00:21:58;;;;;;;4.53;4.05;;;16.90;99.90;;;16.79;100.00;97252.69;5007450;28;20485;-57
2022/07/30 00:24:24;;;;;;;4.95;4.10;;;17.00;99.90;;;16.84;100.00;97259.56;5014150;28;20381;-57
2022/07/30 00:26:50;;;;;;;5.10;4.05;;;17.00;99.90;;;16.87;100.00;97260.22;5008116;28;20061;-57
2022/07/30 00:29:16;;;;;;;5.40;3.83;;;17.10;99.90;;;16.92;100.00;97262.59;5012447;28;20132;-57
2022/07/30 00:31:41;;;;;;;4.68;3.38;;;17.10;99.90;;;16.92;100.00;97258.13;5010727;28;20029;-57
2022/07/30 00:34:07;;;;;;;4.38;3.50;;;17.10;99.90;;;16.97;100.00;97266.66;5012275;28;20662;-58
2022/07/30 00:36:33;;;;;;;5.10;3.20;;;17.20;99.90;;;16.97;100.00;97258.66;5013054;28;20041;-57
2022/07/30 00:38:59;;;;;;;4.80;3.63;;;17.20;99.90;;;17.01;100.00;97263.78;5008594;28;20329;-57
2022/07/30 00:41:25;;;;;;;5.88;3.78;;;17.20;99.90;;;17.02;100.00;97261.03;5005078;28;20167;-57
2022/07/30 00:43:51;;;;;;;3.40;3.10;;;17.20;99.90;;;17.04;100.00;97263.59;5011759;28;20053;-57
2022/07/30 00:46:17;;;;;;;4.07;3.13;;;17.30;99.90;;;17.00;100.00;97262.94;5010401;28;20041;-57
2022/07/30 00:48:44;;;;;;;3.55;3.25;;;17.20;99.90;;;17.01;100.00;97267.31;5015415;28;20035;-57
2022/07/30 00:51:10;;;;;;;3.63;3.10;;;17.20;99.90;;;16.95;100.00;97262.41;5009210;28;20041;-57
2022/07/30 00:53:37;;;;;;;4.05;3.45;;;17.20;99.90;;;16.96;100.00;97256.97;5015411;28;20064;-57
2022/07/30 00:56:04;;;;;;;3.75;3.08;;;17.20;99.90;;;16.86;100.00;97234.53;5013152;28;20037;-58
2022/07/30 00:58:29;;;;;;;4.50;3.60;;;17.20;99.90;;;16.97;100.00;97257.81;5012435;28;20033;-57
2022/07/30 01:00:55;;;;;;;4.30;3.60;;;17.20;99.90;;;16.95;100.00;97265.06;5010526;28;20030;-57
2022/07/30 01:03:21;;;;;;;6.07;3.45;;;17.20;99.90;;;16.93;100.00;97269.63;5016876;28;20485;-57
2022/07/30 01:05:48;;;;;;;3.80;3.40;;;17.20;99.90;;;16.92;100.00;97268.78;5012783;28;20029;-58
2022/07/30 01:08:13;;;;;;;4.97;3.33;;;17.10;99.90;;;16.91;100.00;97259.06;5010838;28;20040;-58
2022/07/30 01:10:39;;;;;;;5.53;3.58;;;17.10;99.90;;;16.88;100.00;97259.25;5015195;28;20394;-57
2022/07/30 01:13:06;;;;;;;4.10;3.30;;;17.10;99.90;;;16.96;100.00;97272.09;5014074;28;20037;-58
2022/07/30 01:15:32;;;;;;;5.35;3.42;;;17.10;99.90;;;16.96;100.00;97275.63;4997053;28;20449;-58
2022/07/30 01:18:02;;;;;;;4.35;3.30;;;17.20;99.90;;;16.95;100.00;97276.56;5011406;28;20105;-58
2022/07/30 01:20:38;;;;;;;8.55;3.38;;;17.10;99.90;;;16.94;100.00;97277.53;4995172;28;20034;-58
2022/07/30 01:23:22;;;;;;;4.03;2.97;;;17.10;99.90;;;16.90;100.00;97277.81;5006577;28;20045;-57
2022/07/30 01:25:53;;;;;;;3.20;2.90;;;17.10;99.90;;;16.88;100.00;97277.91;4992083;28;20040;-58
2022/07/30 01:28:25;;;;;;;4.68;3.13;;;17.10;99.90;;;16.83;100.00;97281.78;5006482;28;20039;-58
2022/07/30 01:30:53;;;;;;;6.03;3.55;;;17.00;99.90;;;16.78;100.00;97280.28;5011831;28;20038;-58
2022/07/30 01:33:21;;;;;;;3.47;3.17;;;17.00;99.90;;;16.73;100.00;97279.72;5006530;28;20041;-58
2022/07/30 01:35:49;;;;;;;4.28;3.05;;;16.90;99.90;;;16.69;100.00;97280.00;5007123;28;20026;-58
2022/07/30 01:38:21;;;;;;;4.68;3.15;;;16.90;99.90;;;16.69;100.00;97280.00;4991332;28;20504;-59
2022/07/30 01:40:49;;;;;;;;;;;16.90;99.90;;;16.67;100.00;97288.13;4991640;28;20041;-59
2022/07/30 01:43:16;;;;;;;3.40;3.00;;;16.80;99.90;;;16.67;100.00;97289.91;5008565;28;20404;-58
2022/07/30 01:45:43;;;;;;;3.58;3.03;;;16.90;99.90;;;16.68;100.00;97294.28;4989152;28;20041;-61
2022/07/30 01:48:12;;;;;;;2.95;2.50;;;16.90;99.90;;;16.68;100.00;97296.94;4993120;28;20109;-58
2022/07/30 01:50:43;;;;;;;3.97;3.13;;;16.90;99.90;;;16.67;100.00;97295.22;4996261;28;20737;-59
2022/07/30 01:53:09;;;;;;;3.83;2.92;;;16.90;99.90;;;16.64;100.00;97293.63;5004980;28;20018;-59
2022/07/30 01:55:38;;;;;;;4.18;3.15;;;16.80;99.90;;;16.62;100.00;97298.19;5012126;28;20044;-59
2022/07/30 01:58:06;;;;;;;4.60;3.03;;;16.80;99.90;;;16.60;100.00;97290.31;4992834;28;20052;-59
2022/07/30 02:00:37;;;;;;;3.45;3.00;;;16.80;99.90;;;16.64;100.00;97292.78;5011029;28;20083;-59
2022/07/30 02:03:07;;;;;;;3.05;2.70;;;16.80;99.90;;;16.59;100.00;97293.91;4994521;28;20180;-59
2022/07/30 02:05:34;;;;;;;3.30;2.80;;;16.80;99.90;;;16.57;100.00;97290.47;4995466;28;20041;-59
2022/07/30 02:08:19;;;;;;;3.60;2.90;;;16.80;99.90;;;16.60;100.00;97286.78;5015135;28;20033;-60
2022/07/30 02:11:10;;;;;;;3.65;2.72;;;16.80;99.90;;;16.62;100.00;97292.88;5013966;28;20025;-59
2022/07/30 02:13:51;;;;;;;4.07;2.90;;;16.80;99.90;;;16.60;100.00;97292.13;5003905;28;20029;-59
2022/07/30 02:16:27;;;;;;;4.35;2.80;;;16.70;99.90;;;16.56;100.00;97287.91;5013744;28;20038;-59
2022/07/30 02:19:12;;;;;;;2.75;2.40;;;16.70;99.90;;;16.51;100.00;97293.53;5008405;28;20116;-59
2022/07/30 02:21:43;;;;;;;5.25;2.80;;;16.70;99.90;;;16.47;100.00;97291.16;5005136;28;20044;-59
2022/07/30 02:24:14;;;;;;;4.28;2.78;;;16.70;99.90;;;16.44;100.00;97286.91;4990355;28;20086;-59
2022/07/30 02:26:43;;;;;;;3.63;2.40;;;16.60;99.90;;;16.38;100.00;97287.25;5010007;28;20044;-60
2022/07/30 02:29:10;;;;;;;3.42;2.80;;;16.60;99.90;;;16.33;100.00;97295.53;5001058;28;20045;-60
2022/07/30 02:31:37;;;;;;;5.88;2.67;;;16.50;99.90;;;16.28;100.00;97297.63;5010228;28;20087;-59
2022/07/30 02:34:05;;;;;;;2.92;2.60;;;16.50;99.90;;;16.22;100.00;97298.88;5009918;28;20056;-59
2022/07/30 02:36:32;;;;;;;4.60;3.20;;;16.40;99.90;;;16.23;100.00;97299.72;5011701;28;20042;-59
2022/07/30 02:38:59;;;;;;;5.25;3.40;;;16.40;99.90;;;16.25;100.00;97284.50;5009116;28;20191;-59
2022/07/30 02:41:28;;;;;;;6.18;3.70;;;16.40;99.90;;;16.33;100.00;97300.00;5009938;28;20116;-59
2022/07/30 02:43:56;;;;;;;3.63;2.95;;;16.50;99.90;;;16.41;100.00;97301.22;4992721;28;20113;-59
2022/07/30 02:46:24;;;;;;;4.85;3.03;;;16.60;99.90;;;16.47;100.00;97304.47;4994085;28;20029;-59
2022/07/30 02:48:52;;;;;;;5.85;3.22;;;16.60;99.90;;;16.47;100.00;97313.28;4999551;28;20083;-59
2022/07/30 02:51:21;;;;;;;6.85;3.00;;;16.70;99.90;;;16.43;100.00;97301.13;5009830;28;20040;-56
2022/07/30 02:53:48;;;;;;;4.70;2.88;;;16.70;99.90;;;16.48;100.00;97308.84;5009161;28;20553;-56
2022/07/30 02:56:19;;;;;;;4.80;3.33;;;16.70;99.90;;;16.38;100.00;97317.41;5011964;28;20529;-56
2022/07/30 02:58:45;;;;;;;3.55;2.45;;;16.60;99.90;;;16.22;100.00;97306.84;5007369;28;20034;-56
2022/07/30 03:01:15;;;;;;;3.38;2.85;;;16.50;99.90;;;16.17;100.00;97322.22;4997191;28;20120;-56
2022/07/30 03:03:43;;;;;;;3.28;2.97;;;16.40;99.90;;;16.10;100.00;97320.03;4976502;28;20484;-56
2022/07/30 03:06:10;;;;;;;3.88;2.80;;;16.40;99.90;;;16.01;100.00;97321.47;4994839;28;20030;-56
2022/07/30 03:08:36;;;;;;;4.95;2.92;;;16.30;99.90;;;15.94;100.00;97320.09;4987252;28;20036;-57
2022/07/30 03:11:03;;;;;;;3.20;2.88;;;16.20;99.90;;;15.87;100.00;97314.28;5009655;28;20060;-56
2022/07/30 03:13:29;;;;;;;5.00;3.50;;;16.20;99.90;;;15.92;100.00;97322.84;5005190;28;20412;-56
2022/07/30 03:15:57;;;;;;;4.78;3.20;;;16.20;99.90;;;15.92;100.00;97325.50;5010418;28;20041;-56
2022/07/30 03:18:27;;;;;;;4.72;2.88;;;16.10;99.90;;;15.90;100.00;97322.09;5004872;28;20057;-56
2022/07/30 03:20:55;;;;;;;4.28;2.90;;;16.20;99.90;;;15.86;100.00;97323.22;5007491;28;20041;-56
2022/07/30 03:23:22;;;;;;;4.90;3.20;;;16.10;99.90;;;15.87;100.00;97329.41;5005637;28;20088;-56
2022/07/30 03:25:56;;;;;;;3.13;2.78;;;16.10;99.90;;;15.83;100.00;97334.91;4992003;28;20212;-58
2022/07/30 03:28:23;;;;;;;8.65;3.13;;;16.10;99.90;;;15.83;100.00;97334.91;4990501;28;20096;-58
2022/07/30 03:30:50;;;;;;;4.53;3.17;;;16.10;99.90;;;15.90;98.42;97339.84;5005857;28;20151;-58
2022/07/30 03:33:18;;;;;;;6.05;3.15;;;16.10;99.90;;;15.89;99.43;97338.13;4991374;28;21208;-58
2022/07/30 03:35:45;;;;;;;6.78;3.40;;;16.10;99.90;;;15.85;97.99;97334.81;5009740;28;20620;-59
2022/07/30 03:38:13;;;;;;;6.05;3.28;;;16.10;99.90;;;15.86;97.10;97336.50;4989990;28;20045;-58
2022/07/30 03:40:40;;;;;;;4.53;3.25;;;16.10;99.90;;;15.90;96.41;97337.19;4992703;28;20500;-59
2022/07/30 03:43:09;;;;;;;4.32;3.10;;;16.10;99.90;;;15.92;96.13;97336.16;4988437;28;20199;-58
2022/07/30 03:45:37;;;;;;;6.25;3.20;;;16.10;99.90;;;15.91;96.49;97331.78;5006851;28;20036;-59
2022/07/30 03:48:06;;;;;;;4.65;3.45;;;16.20;99.90;;;15.95;95.16;97338.63;4988742;28;20037;-59
2022/07/30 03:50:35;;;;;;;6.18;3.25;;;16.20;99.90;;;15.93;96.14;97347.63;5004991;28;20651;-59
2022/07/30 03:53:03;;;;;;;4.07;2.80;;;16.20;99.90;;;15.91;96.79;97344.22;5005515;28;20033;-58
2022/07/30 03:55:30;;;;;;;6.47;3.40;;;16.20;99.90;;;15.88;96.54;97352.38;5015989;28;20041;-58
2022/07/30 03:57:56;;;;;;;4.95;3.28;;;16.10;99.90;;;15.95;95.52;97351.06;4997383;28;20034;-58
2022/07/30 04:00:22;;;;;;;4.03;3.20;;;16.10;99.90;;;15.93;95.34;97353.81;4992124;28;20041;-58
2022/07/30 04:02:48;;;;;;;5.70;3.00;;;16.20;99.90;;;15.91;96.33;97357.53;5013400;28;20057;-59
2022/07/30 04:05:15;;;;;;;4.22;2.63;;;16.20;99.90;;;15.89;96.39;97368.25;5014296;28;20036;-59
2022/07/30 04:07:41;;;;;;;5.80;3.03;;;16.10;99.90;;;15.88;96.55;97365.66;5007367;28;20033;-59
2022/07/30 04:10:08;;;;;;;3.97;3.05;;;16.10;99.90;;;15.87;95.04;97362.16;5013384;28;20068;-59
2022/07/30 04:12:34;;;;;;;5.00;2.65;;;16.10;99.90;;;15.83;95.55;97358.81;5013993;28;20095;-59
2022/07/30 04:15:00;;;;;;;4.35;2.83;;;16.10;99.90;;;15.86;95.42;97370.22;5009341;28;20030;-59
2022/07/30 04:17:38;;;;;;;4.35;2.75;;;16.10;99.90;;;15.84;95.75;97373.84;5005231;28;20032;-58
2022/07/30 04:20:16;;;;;;;4.03;2.60;;;16.10;99.90;;;15.85;95.21;97380.00;5010011;28;20034;-58
2022/07/30 04:22:43;;;;;;;4.60;3.30;;;16.10;99.90;;;15.80;94.18;97363.47;5013500;28;20030;-59
2022/07/30 04:25:10;;;;;;;3.83;3.03;;;16.10;99.90;;;16.01;92.84;97385.28;4993144;28;20519;-59
2022/07/30 04:27:37;;;;;;;5.30;2.97;;;16.20;99.90;;;16.10;93.05;97383.88;5005589;28;20068;-58
2022/07/30 04:30:04;;;;;;;4.88;2.83;;;16.30;99.90;;;16.15;92.58;97390.66;5010891;28;20060;-59
2022/07/30 04:32:31;;;;;;;6.70;3.30;;;16.40;99.90;;;16.22;91.39;97393.78;5010736;28;20123;-58
2022/07/30 04:34:58;;;;;;;3.90;2.95;;;16.40;99.90;;;16.31;91.10;97397.69;5011024;28;20029;-58
2022/07/30 04:37:26;;;;;;;5.07;3.28;;;16.50;99.90;;;16.33;91.10;97399.34;5006148;28;20112;-58
2022/07/30 04:39:56;;;;;;;7.88;3.50;;;16.50;99.90;;;16.37;89.57;97398.19;5015744;28;20539;-58
2022/07/30 04:42:25;;;;;;;5.65;3.08;;;16.60;99.90;;;16.41;89.41;97402.38;5007015;28;20104;-59
2022/07/30 04:44:50;;;;;;;4.95;2.75;;;16.60;99.90;;;16.46;89.82;97402.09;5003420;28;20308;-58
2022/07/30 04:47:17;;;;;;;5.40;3.28;;;16.70;99.90;;;16.45;88.74;97386.22;5003275;28;20036;-59
2022/07/30 04:49:45;;;;;;;4.10;2.92;;;16.70;99.90;;;16.64;88.61;97410.78;5005510;28;20121;-59
2022/07/30 04:52:13;;;;;;;5.95;2.95;;;16.80;99.90;;;16.74;87.79;97405.72;4993694;28;20617;-59
2022/07/30 04:54:55;;;;;;;3.92;2.70;;;16.90;99.90;;;16.82;86.70;97411.44;5007140;28;20425;-59
2022/07/30 04:57:21;;;;;;;;;;;17.00;99.90;;;16.89;86.04;97411.97;5005205;28;20033;-59
2022/07/30 04:59:47;;;;;;;6.40;2.83;;;17.00;99.90;;;16.98;86.09;97408.72;5009142;28;20434;-59
2022/07/30 05:02:15;;;;;;;5.53;3.03;;;17.10;99.90;;;17.08;85.09;97414.31;5015298;28;20041;-59
2022/07/30 05:04:41;;;;;;;4.07;3.28;;;17.20;99.90;;;17.14;84.63;97416.59;4997766;28;20068;-59
2022/07/30 05:07:10;;;;;;;3.88;2.60;;;17.30;99.90;;;17.15;84.90;97411.16;4991805;28;20067;-59
2022/07/30 05:09:36;;;;;;;4.10;3.25;;;17.30;99.90;;;17.24;85.08;97427.53;5006446;28;20098;-59
2022/07/30 05:12:02;;;;;;;4.72;3.20;;;17.40;99.90;;;17.31;84.26;97420.84;5016765;28;20485;-59
2022/07/30 05:14:28;;;;;;;3.58;2.60;;;17.50;99.90;;;17.35;84.25;97428.56;5008873;28;20084;-59
2022/07/30 05:16:54;;;;;;;4.93;2.60;;;17.50;99.90;;;17.38;84.24;97423.97;5008174;28;20121;-59
2022/07/30 05:19:21;;;;;;;5.70;2.78;;;17.60;99.90;;;17.41;84.81;97421.97;5011095;28;20112;-58
2022/07/30 05:21:46;;;;;;;4.90;3.00;;;17.60;99.90;;;17.48;84.13;97427.75;5013272;28;20182;-59
2022/07/30 05:24:12;;;;;;;7.78;3.10;;;17.70;99.90;;;17.52;84.51;97424.81;5012319;28;20521;-59
2022/07/30 05:26:39;;;;;;;4.50;3.65;;;17.70;99.90;;;17.60;82.09;97426.97;5004177;28;20065;-59
2022/07/30 05:29:05;;;;;;;5.75;2.95;;;17.80;99.90;;;17.69;81.88;97430.84;4992657;28;20038;-59
2022/07/30 05:31:31;;;;;;;6.45;2.63;;;17.90;99.90;;;17.74;83.19;97432.25;5003023;28;20060;-59
2022/07/30 05:33:57;;;;;;;5.70;3.38;;;17.90;99.90;;;17.87;81.21;97428.81;5009753;28;20132;-58
2022/07/30 05:36:23;;;;;;;4.68;2.92;;;18.00;99.90;;;17.97;81.79;97435.25;5007993;28;20453;-59
2022/07/30 05:38:48;;;;;;;3.70;2.50;;;18.10;99.90;;;18.13;82.49;97430.59;5013250;28;20030;-59
2022/07/30 05:41:14;;;;;;;4.45;2.72;;;18.20;99.90;;;18.48;81.00;97429.16;5007633;28;20091;-59
2022/07/30 05:43:41;;;;;;;4.00;2.70;;;18.40;99.90;;;18.97;78.92;97431.16;5008176;28;20486;-58
2022/07/30 05:46:07;;;;;;;5.45;2.50;;;18.70;99.90;;;19.77;76.37;97435.25;5006038;28;20040;-59
2022/07/30 05:48:34;;;;;;;4.47;3.05;;;19.20;99.90;;;20.33;69.01;97438.19;5009483;28;20329;-59
2022/07/30 05:51:01;;;;;;;5.43;2.72;;;19.60;99.90;;;20.50;68.26;97438.72;5010602;28;20116;-59
2022/07/30 05:53:27;;;;;;;4.43;2.90;;;20.00;99.90;;;20.37;67.10;97431.63;5009197;28;20255;-59
2022/07/30 05:55:52;;;;;;;5.07;2.88;;;20.10;99.90;;;20.36;65.91;97437.09;5013166;28;20104;-58
2022/07/30 05:58:18;;;;;;;6.70;3.13;;;20.10;99.90;;;20.34;66.11;97433.69;5015031;28;20033;-58
2022/07/30 06:00:44;;;;;;;5.18;2.85;;;20.10;99.90;;;20.38;67.98;97436.00;5015108;28;20676;-58
2022/07/30 06:03:10;;;;;;;4.47;2.78;;;20.10;99.90;;;20.35;68.83;97438.94;5022853;22;20016;-43
2022/07/30 06:05:36;;;;;;;6.40;3.22;;;20.20;99.90;;;20.38;65.32;97440.50;4975451;28;20452;-44
2022/07/30 06:08:02;;;;;;;4.88;2.70;;;20.20;99.90;;;20.36;67.08;97439.78;4980098;28;20440;-42
2022/07/30 06:10:28;;;;;;;8.85;3.25;;;20.20;99.90;;;20.30;66.22;97440.25;4976623;28;20037;-42
2022/07/30 06:12:53;;;;;;;5.15;2.50;;;20.20;99.90;;;20.20;67.69;97442.75;4976346;28;20042;-42
2022/07/30 06:15:19;;;;;;;3.72;2.47;;;20.20;99.90;;;20.21;69.21;97450.69;4964332;28;20141;-45
2022/07/30 06:17:47;;;;;;;6.30;3.72;;;20.20;99.90;;;20.15;66.69;97450.28;4964301;28;20030;-45
2022/07/30 06:20:15;;;;;;;8.23;3.15;;;20.20;99.90;;;20.20;68.31;97440.09;4936663;28;20223;-43
2022/07/30 06:22:41;;;;;;;5.32;3.03;;;20.30;99.90;;;20.28;67.97;97452.88;4956706;28;20093;-45
2022/07/30 06:25:08;;;;;;;4.15;2.78;;;20.30;99.90;;;20.28;68.67;97453.75;4962543;28;20684;-45
2022/07/30 06:27:35;;;;;;;9.90;3.53;;;20.40;99.90;;;20.27;67.81;97449.34;4956451;28;20034;-44
2022/07/30 06:30:04;;;;;;;6.95;3.63;;;20.40;99.90;;;20.32;63.76;97460.59;4963714;28;20045;-45
2022/07/30 06:32:30;;;;;;;4.15;3.10;;;20.50;99.90;;;20.37;67.17;97454.88;4957816;28;20728;-47
2022/07/30 06:34:55;;;;;;;7.82;3.47;;;20.50;99.90;;;20.47;67.53;97460.38;4961498;28;20037;-46
2022/07/30 06:37:21;;;;;;;3.42;2.67;;;20.50;99.90;;;20.53;65.14;97458.09;4959751;28;20030;-43
2022/07/30 06:39:47;;;;;;;5.47;3.00;;;20.70;99.90;;;20.57;64.88;97461.41;4960857;28;20514;-43
2022/07/30 06:42:13;;;;;;;5.63;2.97;;;20.70;99.90;;;20.60;62.95;97459.34;4960951;28;20031;-43
2022/07/30 06:44:38;;;;;;;6.85;3.63;;;20.80;99.90;;;20.67;62.73;97466.94;4961401;28;20494;-42
2022/07/30 06:47:05;;;;;;;4.68;2.92;;;20.80;99.90;;;20.76;64.58;97455.50;4958723;28;20116;-46
2022/07/30 06:49:31;;;;;;;6.57;2.92;;;20.90;99.90;;;20.77;62.91;97452.69;4945201;28;20535;-46
2022/07/30 06:51:57;;;;;;;5.53;3.50;;;20.90;99.90;;;20.86;61.19;97464.53;4965833;28;20030;-45
2022/07/30 06:54:23;;;;;;;8.07;3.38;;;21.00;99.90;;;20.94;61.29;97467.47;4957133;28;20030;-45
2022/07/30 06:56:49;;;;;;;5.90;3.97;;;21.10;99.90;;;21.00;60.35;97474.19;4963716;28;20094;-44
2022/07/30 06:59:15;;;;;;;3.95;2.95;;;21.10;99.90;;;21.09;60.04;97469.94;4955185;28;20031;-42
2022/07/30 07:01:40;;;;;;;7.05;3.22;;;21.20;99.80;;;21.21;59.95;97470.78;4966184;28;20046;-44
2022/07/30 07:04:06;;;;;;;4.82;3.35;;;21.30;99.80;;;21.30;60.06;97470.03;4960105;28;20030;-43
2022/07/30 07:06:32;;;;;;;5.38;3.10;;;21.40;99.50;;;21.38;62.84;97469.44;4955496;28;20831;-45
2022/07/30 07:08:58;;;;;;;4.40;2.78;;;21.50;99.90;;;21.47;62.49;97471.44;4959895;28;20037;-44
2022/07/30 07:11:24;;;;;;;5.07;3.20;;;21.60;99.90;;;21.48;59.02;97475.81;4958805;28;20479;-43
2022/07/30 07:13:49;;;;;;;4.53;2.65;;;21.60;99.70;;;21.51;62.44;97479.09;4957829;28;20699;-43
2022/07/30 07:16:15;;;;;;;4.07;3.00;;;21.60;99.90;;;21.57;59.88;97474.22;4954977;28;20121;-45
2022/07/30 07:18:41;;;;;;;4.00;3.42;;;21.70;99.60;;;21.59;58.54;97481.19;4961780;28;20105;-45
2022/07/30 07:21:07;;;;;;;7.32;3.35;;;21.70;98.90;;;21.65;57.57;97482.50;4964336;28;20041;-46
2022/07/30 07:23:33;;;;;;;7.65;2.80;;;21.70;98.60;;;21.76;58.24;97485.16;4965201;28;21557;-44
2022/07/30 07:25:59;;;;;;;6.53;3.03;;;21.80;98.80;;;21.88;58.10;97477.97;4968773;28;20061;-44
2022/07/30 07:28:25;;;;;;;8.40;2.83;;;21.90;98.40;;;21.99;56.69;97477.94;4968570;28;20380;-43
2022/07/30 07:30:51;;;;;;;5.88;2.67;;;22.10;98.00;;;22.03;57.99;97476.69;4953192;28;20042;-43
2022/07/30 07:33:17;;;;;;;7.40;3.33;;;22.10;98.30;;;22.12;55.86;97477.75;4969411;28;20044;-42
2022/07/30 07:35:43;;;;;;;6.72;4.50;;;22.20;97.60;;;22.08;54.30;97479.00;4964919;28;20125;-43
2022/07/30 07:38:08;;;;;;;4.47;2.97;;;22.20;96.50;;;22.19;54.55;97483.47;4969033;28;20579;-42
2022/07/30 07:40:34;;;;;;;6.45;2.78;;;22.20;96.50;;;22.25;56.19;97472.22;4966560;28;20541;-42
2022/07/30 07:43:00;;;;;;;4.28;2.38;;;22.30;97.30;;;22.43;56.21;97483.28;4962544;28;20410;-43
2022/07/30 07:45:25;;;;;;;8.18;3.05;;;22.50;97.50;;;22.37;52.52;97476.59;4950790;28;20050;-42
2022/07/30 07:47:51;;;;;;;5.95;3.40;;;22.50;95.90;;;22.46;52.10;97478.50;4965259;28;20046;-42
2022/07/30 07:50:18;;;;;;;4.47;2.58;;;22.60;95.40;;;22.56;55.76;97480.41;4963999;28;20023;-44
2022/07/30 07:52:44;;;;;;;4.28;2.50;;;22.60;96.80;;;22.65;53.41;97476.97;4960807;28;20042;-45
2022/07/30 07:55:10;;;;;;;5.00;2.70;;;22.70;95.90;;;22.67;53.93;97465.09;4965188;28;20510;-46
2022/07/30 07:57:40;;;;;;;4.15;2.50;;;22.70;96.00;;;22.91;52.02;97482.78;4966309;28;20054;-41
2022/07/30 08:00:08;;;;;;;4.20;2.78;;;22.90;95.50;;;22.94;51.19;97479.00;4956980;28;20307;-42
2022/07/30 08:02:34;;;;;;;3.55;2.60;;;22.90;94.80;;;23.01;51.27;97480.16;4956675;28;20038;-42
2022/07/30 08:05:00;;;;;;;6.53;3.65;;;23.00;94.60;;;22.98;48.97;97481.28;4957791;28;20046;-41
2022/07/30 08:07:26;;;;;;;2.67;2.20;;;23.10;93.30;;;23.09;51.52;97482.22;4957354;28;20046;-42
2022/07/30 08:09:52;;;;;;;5.55;3.08;;;23.10;94.00;;;23.10;50.50;97486.63;4958082;28;20051;-42
2022/07/30 08:12:17;;;;;;;7.25;3.30;;;23.20;93.80;;;23.16;49.44;97486.94;4958028;28;20065;-42
2022/07/30 08:14:43;;;;;;;4.70;2.75;;;23.20;93.30;;;23.22;47.91;97480.16;4967245;28;20167;-41
2022/07/30 08:17:09;;;;;;;8.82;2.78;;;23.30;92.80;;;23.25;50.90;97491.50;4969175;28;20292;-42
2022/07/30 08:19:35;;;;;;;4.47;2.70;;;23.30;93.60;;;23.16;49.04;97499.53;4967999;28;20026;-42
2022/07/30 08:22:00;;;;;;;3.95;3.00;;;23.20;93.10;;;22.88;48.80;97491.13;4960263;28;20327;-42
2022/07/30 08:24:26;;;;;;;5.93;2.92;;;23.00;92.50;;;22.90;48.33;97474.84;4967209;28;20131;-45
2022/07/30 08:26:52;;;;;;;4.65;2.60;;;23.00;92.20;;;23.02;48.74;97482.75;4967682;28;20030;-45
2022/07/30 08:29:17;;;;;;;4.28;2.33;;;23.10;92.40;;;23.13;47.77;97478.28;4965506;28;20491;-42
2022/07/30 08:31:43;;;;;;;4.03;2.30;;;23.20;92.10;;;23.34;48.57;97484.47;4969398;28;20070;-43
2022/07/30 08:34:09;;;;;;;3.45;1.90;;;23.30;92.60;;;23.55;48.30;97489.81;4964108;28;20492;-41
2022/07/30 08:36:34;;;;;;;4.93;2.47;;;23.50;92.30;;;23.71;45.85;97489.28;4964381;28;20038;-41
2022/07/30 08:39:00;;;;;;;5.18;2.22;;;23.70;90.70;;;23.73;45.37;97484.63;4965078;28;21003;-42
2022/07/30 08:41:26;;;;;;;2.63;2.00;;;23.80;89.30;;;23.85;45.70;97490.78;4970749;28;20026;-41
2022/07/30 08:43:54;;;;;;;4.78;2.08;;;23.80;90.00;;;24.00;44.78;97492.09;4940847;28;20034;-41
2022/07/30 08:46:24;;;;;;;4.75;2.72;;;24.00;89.50;;;24.13;44.70;97483.75;4961279;28;20037;-42
2022/07/30 08:48:51;;;;;;;4.65;2.47;;;24.10;88.30;;;24.17;44.29;97490.56;4963201;28;20070;-41
2022/07/30 08:51:18;;;;;;;4.38;2.30;;;24.20;88.50;;;24.19;43.31;97501.19;4968587;28;20442;-41
2022/07/30 08:53:45;;;;;;;3.72;2.20;;;24.20;85.60;;;24.22;42.97;97494.69;4963211;28;20177;-43
2022/07/30 08:56:11;;;;;;;3.55;2.90;;;24.20;85.10;;;24.10;42.91;97484.03;4947127;28;20390;-41
2022/07/30 08:58:37;;;;;;;3.70;2.50;;;24.20;84.10;;;24.08;42.60;97488.69;4963561;28;20073;-42
2022/07/30 09:01:04;;;;;;;3.10;2.50;;;24.20;83.30;;;24.13;43.37;97501.75;4969583;28;20042;-41
2022/07/30 09:03:31;;;;;;;3.33;2.08;;;24.20;84.30;;;24.29;44.41;97491.28;4969828;28;20038;-41
2022/07/30 09:05:59;;;;;;;7.95;2.58;;;24.30;86.00;;;24.35;42.71;97497.94;4968215;28;20035;-42
2022/07/30 09:08:24;;;;;;;6.53;3.33;;;24.40;83.40;;;24.21;42.43;97485.75;4967606;28;20126;-42
2022/07/30 09:10:50;;;;;;;5.05;2.72;;;24.50;82.50;;;24.18;42.48;97486.88;4966131;28;20072;-40
2022/07/30 09:13:43;;;;;;;6.97;2.72;;;24.40;81.60;;;24.28;42.32;97489.59;4968166;28;20038;-42
2022/07/30 09:16:26;;;;;;;;;;;24.40;81.90;;;24.51;44.32;97489.28;4970483;28;20140;-40
2022/07/30 09:18:53;;;;;;;5.13;2.00;;;24.60;83.60;;;24.63;42.08;97495.44;4963846;28;19922;-41
2022/07/30 09:21:26;;;;;;;3.55;2.65;;;24.70;81.40;;;24.81;42.43;97493.72;4970117;28;20033;-42
2022/07/30 09:24:04;;;;;;;3.97;2.50;;;24.90;82.10;;;25.13;42.29;97497.91;4967129;28;20038;-41
2022/07/30 09:26:32;;;;;;;4.47;2.45;;;25.10;82.20;;;25.36;40.18;97498.47;4967007;28;20029;-42
2022/07/30 09:29:18;;;;;;;2.97;2.10;;;25.40;78.60;;;25.65;40.42;97492.09;4961343;28;20384;-41
2022/07/30 09:32:05;;;;;;;3.55;2.17;;;25.70;78.10;;;25.59;40.18;97492.66;4967140;28;20057;-40
2022/07/30 09:34:38;;;;;;;7.35;2.55;;;25.70;77.90;;;25.49;40.18;97495.41;4966092;28;20112;-40
2022/07/30 09:37:10;;;;;;;3.55;2.30;;;25.70;76.20;;;25.41;40.32;97479.09;4967435;28;20093;-41
2022/07/30 09:39:38;;;;;;;3.00;2.40;;;25.50;76.20;;;25.00;40.83;97487.44;4965938;28;20039;-41
2022/07/30 09:42:20;;;;;;;6.47;2.38;;;25.20;76.30;;;24.65;41.36;97494.28;4969866;28;20035;-41
2022/07/30 09:44:47;;;;;;;5.65;2.53;;;24.80;78.00;;;24.46;40.87;97487.03;4967950;28;20030;-42
2022/07/30 09:47:34;;;;;;;4.20;2.42;;;24.70;76.80;;;24.52;40.88;97489.16;4970365;28;20045;-40
2022/07/30 09:50:12;;;;;;;3.75;2.03;;;24.70;76.60;;;24.62;42.91;97480.25;4968689;28;20086;-40
2022/07/30 09:52:42;;;;;;;4.63;2.10;;;24.70;79.50;;;24.55;44.79;97482.69;4964350;28;20030;-42
2022/07/30 09:55:10;;;;;;;2.95;1.90;;;24.60;82.30;;;24.42;43.63;97474.81;4968382;28;20865;-41
2022/07/30 09:57:56;;;;;;;4.20;1.90;;;24.50;81.50;;;24.34;41.48;97488.16;4967485;28;20038;-40
2022/07/30 10:00:24;;;;;;;7.00;2.00;;;24.40;78.80;;;24.45;40.76;97488.03;4962464;28;20234;-40
2022/07/30 10:02:52;;;;;;;4.72;2.05;;;24.50;77.80;;;24.70;41.08;97486.63;4967690;28;20031;-40
2022/07/30 10:05:19;;;;;;;4.15;2.28;;;24.80;77.00;;;25.00;39.58;97479.34;4968071;28;20034;-41
2022/07/30 10:07:56;;;;;;;3.95;1.80;;;25.00;75.20;;;25.08;40.60;97482.16;4966084;28;20104;-40
2022/07/30 10:10:28;;;;;;;3.53;2.20;;;25.10;74.70;;;24.96;39.01;97494.09;4949651;28;20049;-40
2022/07/30 10:13:00;;;;;;;2.72;1.90;;;25.10;73.90;;;24.76;38.85;97480.69;4965604;28;20455;-40
2022/07/30 10:15:31;;;;;;;2.53;1.70;;;24.90;72.10;;;24.93;39.28;97486.31;4958087;28;20403;-41
2022/07/30 10:17:58;;;;;;;4.25;1.92;;;24.90;73.40;;;25.01;39.32;97485.59;4962892;28;20406;-39
2022/07/30 10:20:26;;;;;;;2.88;1.90;;;25.10;73.20;;;25.00;38.96;97483.88;4941668;28;20089;-41